Time;durP1;ratioP1;P1;durP2;ratioP2;P2;SDS_P1;SDS_P2;PMS_P1;PMS_P2;Temp;Humidity;BMP_temperature;BMP_pressure;BME280_temperature;BME280_humidity;BME280_pressure;Samples;Min_cycle;Max_cycle;Signal;HPM_P1;HPM_P2
2022/03/14 00:02:07;;;;;;;38.35;17.75;;;;;;;-3.48;100.00;101848.95;1747625;82;21018;-67
2022/03/14 00:04:38;;;;;;;36.83;16.50;;;;;;;-3.46;100.00;101844.75;1747799;82;21056;-68
2022/03/14 00:07:05;;;;;;;34.00;15.93;;;;;;;-3.39;100.00;101846.81;1747919;82;21021;-68
2022/03/14 00:09:33;;;;;;;33.75;16.10;;;;;;;-3.39;100.00;101848.09;1747757;82;21517;-67
2022/03/14 00:12:00;;;;;;;37.75;16.90;;;;;;;-3.35;100.00;101839.70;1747705;82;21001;-66
2022/03/14 00:14:29;;;;;;;44.80;20.72;;;;;;;-3.34;100.00;101842.74;1748009;82;21524;-68
2022/03/14 00:16:56;;;;;;;52.38;21.80;;;;;;;-3.35;100.00;101844.86;1747747;82;21033;-67
2022/03/14 00:19:23;;;;;;;49.38;20.92;;;;;;;-3.35;100.00;101842.28;1748194;82;21060;-66
2022/03/14 00:21:51;;;;;;;72.60;27.48;;;;;;;-3.33;100.00;101844.53;1747995;82;21028;-67
2022/03/14 00:24:19;;;;;;;76.77;30.62;;;;;;;-3.31;100.00;101841.62;1747426;82;21400;-68
2022/03/14 00:26:49;;;;;;;80.25;31.82;;;;;;;-3.28;100.00;101844.74;1747862;82;21062;-67
2022/03/14 00:29:18;;;;;;;67.37;27.35;;;;;;;-3.27;100.00;101838.35;1718801;82;21036;-67
2022/03/14 00:31:45;;;;;;;71.87;29.40;;;;;;;-3.25;100.00;101844.46;1747869;82;21052;-68
2022/03/14 00:34:14;;;;;;;75.80;31.33;;;;;;;-3.25;100.00;101849.62;1747994;82;21107;-67
2022/03/14 00:36:42;;;;;;;78.02;31.40;;;;;;;-3.22;100.00;101852.36;1747919;82;20993;-67
2022/03/14 00:39:10;;;;;;;71.82;31.55;;;;;;;-3.16;100.00;101850.05;1747872;82;21553;-68
2022/03/14 00:41:37;;;;;;;72.30;29.95;;;;;;;-3.14;100.00;101851.83;1747902;82;21564;-67
2022/03/14 00:44:04;;;;;;;56.95;25.60;;;;;;;-3.11;100.00;101859.69;1747795;81;21068;-67
2022/03/14 00:46:32;;;;;;;69.37;30.00;;;;;;;-3.09;100.00;101852.91;1747954;82;21138;-67
2022/03/14 00:49:00;;;;;;;49.58;24.12;;;;;;;-3.05;100.00;101852.25;1755561;80;21060;-67
2022/03/14 00:51:26;;;;;;;72.85;30.95;;;;;;;-3.03;100.00;101854.08;1779069;80;21635;-66
2022/03/14 00:53:53;;;;;;;71.20;29.52;;;;;;;-2.98;100.00;101851.72;1778876;80;21517;-67
2022/03/14 00:56:21;;;;;;;74.82;32.50;;;;;;;-2.96;100.00;101847.52;1778873;80;21524;-67
2022/03/14 00:58:49;;;;;;;72.75;31.52;;;;;;;-2.92;100.00;101857.16;1778771;80;21239;-67
2022/03/14 01:01:17;;;;;;;70.70;32.63;;;;;;;-2.91;100.00;101848.59;1778553;80;21034;-68
2022/03/14 01:03:44;;;;;;;59.83;25.72;;;;;;;-2.88;100.00;101850.02;1778902;80;21067;-67
2022/03/14 01:06:12;;;;;;;62.48;29.18;;;;;;;-2.86;100.00;101847.10;1778815;80;21016;-68
2022/03/14 01:08:38;;;;;;;63.58;27.45;;;;;;;-2.83;100.00;101849.84;1778912;80;21569;-68
2022/03/14 01:11:05;;;;;;;52.08;24.15;;;;;;;-2.78;100.00;101848.75;1779023;80;21556;-67
2022/03/14 01:13:34;;;;;;;47.50;21.68;;;;;;;-2.72;100.00;101859.73;1778499;80;21005;-67
2022/03/14 01:16:01;;;;;;;46.77;21.90;;;;;;;-2.71;100.00;101853.38;1778798;80;21536;-67
2022/03/14 01:18:28;;;;;;;37.28;18.65;;;;;;;-2.66;100.00;101863.48;1778879;80;21024;-68
2022/03/14 01:20:56;;;;;;;44.67;20.20;;;;;;;-2.65;100.00;101854.03;1778715;80;21541;-67
2022/03/14 01:23:25;;;;;;;45.30;21.05;;;;;;;-2.65;100.00;101848.88;1778818;80;21192;-68
2022/03/14 01:25:51;;;;;;;46.58;20.08;;;;;;;-2.64;100.00;101853.23;1741884;82;21049;-67
2022/03/14 01:28:18;;;;;;;38.83;19.23;;;;;;;-2.64;100.00;101850.66;1715417;83;21027;-68
2022/03/14 01:30:45;;;;;;;44.58;19.23;;;;;;;-2.62;100.00;101851.61;1778846;80;21060;-67
2022/03/14 01:33:12;;;;;;;54.88;24.95;;;;;;;-2.61;100.00;101849.49;1741927;82;21002;-67
2022/03/14 01:35:39;;;;;;;45.43;23.57;;;;;;;-2.57;100.00;101852.69;1715621;83;21245;-66
2022/03/14 01:38:06;;;;;;;54.33;23.45;;;;;;;-2.57;100.00;101846.24;1778984;80;21017;-69
2022/03/14 01:40:33;;;;;;;67.92;26.37;;;;;;;-2.55;100.00;101849.77;1778791;80;21032;-67
2022/03/14 01:43:00;;;;;;;85.00;28.80;;;;;;;-2.50;100.00;101852.14;1778821;80;20995;-67
2022/03/14 01:45:26;;;;;;;88.70;31.90;;;;;;;-2.48;100.00;101856.97;1741566;81;21061;-68
2022/03/14 01:47:53;;;;;;;69.22;27.82;;;;;;;-2.44;100.00;101860.16;1715641;83;21210;-67
2022/03/14 01:50:20;;;;;;;71.10;25.90;;;;;;;-2.42;100.00;101855.92;1778832;80;21029;-67
2022/03/14 01:52:47;;;;;;;58.38;23.12;;;;;;;-2.37;100.00;101857.02;1778719;80;21017;-67
2022/03/14 01:55:14;;;;;;;46.33;20.88;;;;;;;-2.40;100.00;101861.16;1778796;80;21065;-67
2022/03/14 01:57:41;;;;;;;56.35;23.05;;;;;;;-2.41;100.00;101858.12;1778905;80;21624;-67
2022/03/14 02:00:10;;;;;;;47.27;20.80;;;;;;;-2.37;100.00;101864.77;1778905;80;22532;-67
2022/03/14 02:02:44;;;;;;;36.83;18.60;;;;;;;-2.38;100.00;101865.98;1778764;80;21421;-68
2022/03/14 02:05:12;;;;;;;36.40;17.20;;;;;;;-2.40;100.00;101859.45;1778834;80;21009;-67
2022/03/14 02:07:40;;;;;;;33.02;18.15;;;;;;;-2.43;100.00;101857.16;1741768;82;21101;-67
2022/03/14 02:10:09;;;;;;;37.40;18.25;;;;;;;-2.42;100.00;101862.37;1715515;83;21386;-67
2022/03/14 02:12:36;;;;;;;36.77;16.45;;;;;;;-2.40;100.00;101862.45;1778441;80;21695;-66
2022/03/14 02:15:06;;;;;;;50.05;20.97;;;;;;;-2.40;100.00;101864.61;1778619;80;21744;-68
2022/03/14 02:17:34;;;;;;;39.13;18.42;;;;;;;-2.40;100.00;101873.64;1741944;82;21101;-68
2022/03/14 02:20:03;;;;;;;45.28;21.60;;;;;;;-2.40;100.00;101877.52;1741731;82;21108;-67
2022/03/14 02:22:30;;;;;;;39.67;18.77;;;;;;;-2.34;100.00;101880.38;1715602;83;21608;-67
2022/03/14 02:24:57;;;;;;;36.33;16.87;;;;;;;-2.35;100.00;101876.04;1778691;80;21143;-66
2022/03/14 02:27:23;;;;;;;35.25;16.73;;;;;;;-2.38;100.00;101878.47;1741680;82;20998;-67
2022/03/14 02:29:51;;;;;;;62.13;25.27;;;;;;;-2.37;100.00;101881.54;1715289;83;21081;-68
2022/03/14 02:32:18;;;;;;;75.65;27.95;;;;;;;-2.35;100.00;101879.91;1778777;80;21041;-67
2022/03/14 02:34:45;;;;;;;75.25;28.23;;;;;;;-2.33;100.00;101880.83;1741846;82;21121;-68
2022/03/14 02:37:11;;;;;;;69.90;26.77;;;;;;;-2.31;100.00;101879.62;1718668;83;21941;-67
2022/03/14 02:39:40;;;;;;;64.17;26.73;;;;;;;-2.23;100.00;101882.52;1782062;80;20919;-66
2022/03/14 02:42:10;;;;;;;59.47;25.10;;;;;;;-2.22;100.00;101889.46;1782711;80;20990;-67
2022/03/14 02:44:42;;;;;;;55.98;24.02;;;;;;;-2.22;100.00;101881.72;1779367;80;21247;-66
2022/03/14 02:47:06;;;;;;;51.60;22.07;;;;;;;-2.20;100.00;101890.42;1778771;80;20990;-66
2022/03/14 02:49:34;;;;;;;55.12;22.62;;;;;;;-2.16;100.00;101894.48;1779433;80;21792;-66
2022/03/14 02:52:01;;;;;;;50.70;22.07;;;;;;;-2.13;100.00;101888.56;1742034;82;20990;-67
2022/03/14 02:54:28;;;;;;;49.40;21.52;;;;;;;-2.13;100.00;101888.56;1741910;82;21050;-67
2022/03/14 02:56:56;;;;;;;40.15;18.75;;;;;;;-2.13;100.00;101884.70;1715614;83;21089;-69
2022/03/14 02:59:24;;;;;;;48.02;21.27;;;;;;;-2.10;100.00;101886.11;1778826;80;21076;-68
2022/03/14 03:01:51;;;;;;;49.67;22.17;;;;;;;-2.09;100.00;101885.31;1741880;82;21227;-68
2022/03/14 03:04:17;;;;;;;41.23;18.87;;;;;;;-2.06;100.00;101894.46;1741909;82;21069;-68
2022/03/14 03:06:45;;;;;;;45.60;21.02;;;;;;;-1.99;100.00;101892.61;1715798;83;21046;-67
2022/03/14 03:09:11;;;;;;;42.48;20.10;;;;;;;-1.95;100.00;101888.05;1778915;80;20967;-68
2022/03/14 03:11:39;;;;;;;41.65;20.17;;;;;;;-1.97;100.00;101894.85;1741994;82;21117;-68
2022/03/14 03:14:09;;;;;;;44.25;20.37;;;;;;;-1.97;100.00;101892.27;1715517;83;21062;-67
2022/03/14 03:16:37;;;;;;;39.03;20.23;;;;;;;-1.97;100.00;101894.85;1778916;80;21017;-68
2022/03/14 03:19:04;;;;;;;43.78;20.82;;;;;;;-1.95;100.00;101894.92;1778895;80;20970;-68
2022/03/14 03:21:38;;;;;;;44.83;20.55;;;;;;;-1.93;100.00;101898.46;1778846;80;21508;-68
2022/03/14 03:24:07;;;;;;;47.08;21.93;;;;;;;-1.92;100.00;101898.50;1778885;80;20990;-67
2022/03/14 03:26:39;;;;;;;47.65;21.12;;;;;;;-1.87;100.00;101897.83;1779106;80;21525;-66
2022/03/14 03:29:09;;;;;;;42.75;21.60;;;;;;;-1.84;100.00;101899.23;1779305;80;21005;-68
2022/03/14 03:31:37;;;;;;;45.33;21.27;;;;;;;-1.87;100.00;101902.98;1779234;80;22225;-67
2022/03/14 03:34:06;;;;;;;47.95;22.17;;;;;;;-1.87;100.00;101899.11;1779160;80;21246;-67
2022/03/14 03:36:33;;;;;;;47.73;21.97;;;;;;;-1.91;99.82;101900.28;1779122;80;22137;-67
2022/03/14 03:39:00;;;;;;;46.18;20.97;;;;;;;-1.84;99.43;101909.56;1742040;82;22121;-67
2022/03/14 03:41:26;;;;;;;48.02;22.52;;;;;;;-1.86;99.36;101915.06;1715655;83;21098;-67
2022/03/14 03:43:53;;;;;;;39.67;17.05;;;;;;;-1.87;99.12;101918.48;1778747;80;20966;-67
2022/03/14 03:46:20;;;;;;;37.60;19.20;;;;;;;-1.85;99.04;101919.43;1748110;81;21024;-68
2022/03/14 03:48:47;;;;;;;49.77;21.95;;;;;;;-1.83;98.84;101921.67;1731823;82;21042;-68
2022/03/14 03:51:14;;;;;;;34.05;16.82;;;;;;;-1.85;98.62;101924.59;1750263;82;21509;-66
2022/03/14 03:53:40;;;;;;;47.83;22.45;;;;;;;-1.81;98.45;101921.33;1750334;82;21097;-67
2022/03/14 03:56:07;;;;;;;39.35;20.00;;;;;;;-1.85;98.42;101923.30;1750201;82;21502;-67
2022/03/14 03:58:34;;;;;;;40.78;19.40;;;;;;;-1.81;98.30;101926.50;1750101;82;21021;-68
2022/03/14 04:01:01;;;;;;;45.33;20.72;;;;;;;-1.82;98.35;101927.30;1750479;82;21081;-68
2022/03/14 04:03:29;;;;;;;42.03;21.33;;;;;;;-1.82;98.27;101923.01;1750391;82;21037;-68
2022/03/14 04:05:57;;;;;;;45.10;22.20;;;;;;;-1.80;98.32;101924.38;1750390;82;21342;-67
2022/03/14 04:08:29;;;;;;;47.23;22.87;;;;;;;-1.80;98.37;101923.08;1750437;82;21570;-67
2022/03/14 04:10:54;;;;;;;42.08;22.17;;;;;;;-1.81;98.33;101931.25;1749791;82;21054;-67
2022/03/14 04:13:24;;;;;;;43.38;20.62;;;;;;;-1.81;98.23;101936.41;1750076;82;21105;-68
2022/03/14 04:15:52;;;;;;;48.00;21.50;;;;;;;-1.83;98.34;101930.71;1750181;82;21141;-67
2022/03/14 04:18:22;;;;;;;46.05;21.00;;;;;;;-1.82;98.27;101927.30;1750453;82;21038;-67
2022/03/14 04:20:51;;;;;;;36.23;17.52;;;;;;;-1.81;98.21;101930.38;1750132;82;22105;-68
2022/03/14 04:23:18;;;;;;;44.05;20.82;;;;;;;-1.82;98.08;101932.46;1750194;82;21007;-66
2022/03/14 04:25:46;;;;;;;42.90;20.12;;;;;;;-1.82;98.32;101933.34;1750526;82;21093;-68
2022/03/14 04:28:14;;;;;;;33.88;18.32;;;;;;;-1.80;98.25;101936.88;1750292;82;21232;-67
2022/03/14 04:30:40;;;;;;;42.03;19.85;;;;;;;-1.79;98.08;101933.91;1750216;82;21006;-68
2022/03/14 04:33:08;;;;;;;32.17;16.42;;;;;;;-1.79;98.06;101937.78;1750652;82;21050;-68
2022/03/14 04:35:41;;;;;;;37.42;18.87;;;;;;;-1.78;98.01;101935.66;1750427;82;21486;-69
2022/03/14 04:38:09;;;;;;;36.53;17.42;;;;;;;-1.76;97.97;101933.61;1750589;82;21104;-67
2022/03/14 04:40:37;;;;;;;44.00;20.82;;;;;;;-1.77;98.07;101942.19;1750329;82;21206;-68
2022/03/14 04:43:09;;;;;;;41.35;19.57;;;;;;;-1.72;98.03;101939.80;1750303;82;21062;-68
2022/03/14 04:45:36;;;;;;;41.25;20.27;;;;;;;-1.70;97.86;101939.46;1742247;82;21034;-67
2022/03/14 04:48:06;;;;;;;39.63;19.07;;;;;;;-1.68;97.83;101944.25;1723741;82;21078;-68
2022/03/14 04:50:37;;;;;;;43.73;20.17;;;;;;;-1.66;97.91;101945.20;1723664;83;21037;-69
2022/03/14 04:53:05;;;;;;;32.07;16.93;;;;;;;-1.63;97.69;101944.06;1724199;82;21979;-68
2022/03/14 04:55:34;;;;;;;36.28;17.65;;;;;;;-1.61;97.54;101945.01;1724096;83;21124;-69
2022/03/14 04:58:04;;;;;;;39.27;18.73;;;;;;;-1.62;97.46;101943.23;1723687;83;21034;-67
2022/03/14 05:00:32;;;;;;;40.28;18.00;;;;;;;-1.60;96.95;101945.47;1723732;82;21015;-68
2022/03/14 05:03:03;;;;;;;32.75;16.35;;;;;;;-1.56;96.67;101952.53;1723802;82;21617;-68
2022/03/14 05:05:34;;;;;;;34.78;17.32;;;;;;;-1.53;96.24;101952.66;1723604;83;22112;-67
2022/03/14 05:08:00;;;;;;;35.40;17.80;;;;;;;-1.52;96.13;101950.56;1723757;83;21617;-68
2022/03/14 05:10:27;;;;;;;33.25;17.15;;;;;;;-1.48;95.63;101951.13;1723552;83;21059;-67
2022/03/14 05:12:54;;;;;;;35.00;16.48;;;;;;;-1.43;95.35;101953.03;1723397;82;21819;-67
2022/03/14 05:15:20;;;;;;;32.00;15.93;;;;;;;-1.37;95.09;101957.17;1723493;83;21677;-68
2022/03/14 05:17:47;;;;;;;31.23;16.10;;;;;;;-1.32;94.76;101955.64;1723603;82;21550;-68
2022/03/14 05:20:15;;;;;;;35.40;16.12;;;;;;;-1.27;94.68;101954.12;1723505;83;21093;-67
2022/03/14 05:22:45;;;;;;;34.73;16.10;;;;;;;-1.23;94.52;101958.60;1723360;82;21109;-68
2022/03/14 05:25:12;;;;;;;30.97;15.98;;;;;;;-1.16;94.24;101958.44;1778825;80;21056;-67
2022/03/14 05:27:40;;;;;;;27.65;15.13;;;;;;;-1.11;93.88;101959.08;1741685;82;21080;-67
2022/03/14 05:30:08;;;;;;;40.73;15.05;;;;;;;-1.00;93.70;101963.40;1715699;83;21479;-67
2022/03/14 05:32:37;;;;;;;28.00;14.33;;;;;;;-0.92;92.98;101963.69;1778794;80;21423;-68
2022/03/14 05:35:05;;;;;;;28.32;13.38;;;;;;;-0.88;92.75;101961.28;1778857;80;21021;-68
2022/03/14 05:37:34;;;;;;;28.90;14.80;;;;;;;-0.81;92.48;101962.41;1779136;80;21045;-68
2022/03/14 05:40:01;;;;;;;22.30;12.45;;;;;;;-0.73;91.96;101961.01;1741807;82;21580;-68
2022/03/14 05:42:27;;;;;;;26.93;13.28;;;;;;;-0.66;91.52;101963.00;1741574;82;21530;-68
2022/03/14 05:44:54;;;;;;;28.30;14.10;;;;;;;-0.58;90.91;101961.11;1715529;83;21535;-68
2022/03/14 05:47:21;;;;;;;22.60;12.10;;;;;;;-0.53;90.26;101961.78;1784000;80;21698;-67
2022/03/14 05:49:48;;;;;;;28.45;13.03;;;;;;;-0.46;89.97;101963.77;1784521;80;21064;-68
2022/03/14 05:52:15;;;;;;;26.05;12.13;;;;;;;-0.35;89.64;101956.80;1784585;80;21486;-68
2022/03/14 05:54:41;;;;;;;25.97;12.60;;;;;;;-0.26;88.10;101965.77;1784698;80;22037;-68
2022/03/14 05:57:08;;;;;;;23.87;11.80;;;;;;;-0.16;87.58;101963.52;1784592;80;21021;-68
2022/03/14 05:59:35;;;;;;;21.02;11.48;;;;;;;-0.04;87.07;101957.50;1784512;80;21025;-67
2022/03/14 06:02:01;;;;;;;23.35;12.03;;;;;;;0.10;85.89;101957.57;1784230;80;21020;-68
2022/03/14 06:04:29;;;;;;;22.13;10.95;;;;;;;0.28;85.31;101959.92;1784724;80;21021;-68
2022/03/14 06:06:56;;;;;;;20.48;11.68;;;;;;;0.48;85.00;101960.58;1785156;80;21208;-69
2022/03/14 06:09:25;;;;;;;21.93;11.38;;;;;;;0.68;83.90;101957.78;1784610;80;21095;-68
2022/03/14 06:11:52;;;;;;;21.55;9.88;;;;;;;0.85;81.78;101957.89;1784751;80;21509;-68
2022/03/14 06:14:18;;;;;;;17.10;10.00;;;;;;;1.19;78.88;101958.95;1784563;80;21036;-68
2022/03/14 06:16:45;;;;;;;17.25;9.08;;;;;;;1.19;78.88;101958.95;1784530;80;21758;-68
2022/03/14 06:19:12;;;;;;;16.40;8.58;;;;;;;1.36;77.91;101955.17;1784571;80;21121;-68
2022/03/14 06:21:39;;;;;;;14.43;7.92;;;;;;;1.99;74.81;101950.45;1784512;80;21016;-68
2022/03/14 06:24:08;;;;;;;15.65;8.53;;;;;;;1.99;74.81;101950.45;1784699;80;21056;-68
2022/03/14 06:26:35;;;;;;;13.30;7.40;;;;;;;2.50;73.78;101953.08;1784515;80;20972;-69
2022/03/14 06:29:03;;;;;;;12.73;7.10;;;;;;;2.94;69.74;101952.88;1784855;80;21012;-67
2022/03/14 06:31:33;;;;;;;13.98;6.87;;;;;;;3.38;67.09;101950.79;1784787;80;21845;-69
2022/03/14 06:34:00;;;;;;;12.07;6.37;;;;;;;3.90;65.31;101946.66;1784878;80;20981;-69
2022/03/14 06:36:28;;;;;;;11.18;6.47;;;;;;;4.51;61.28;101936.88;1784686;80;21076;-69
2022/03/14 06:38:59;;;;;;;9.43;5.95;;;;;;;5.10;60.29;101933.02;1784777;80;21482;-69
2022/03/14 06:41:27;;;;;;;8.18;5.33;;;;;;;5.43;55.86;101948.30;1784981;80;21036;-69
2022/03/14 06:43:55;;;;;;;8.38;4.92;;;;;;;5.49;53.13;101947.48;1784508;80;21260;-67
2022/03/14 06:46:22;;;;;;;12.37;5.03;;;;;;;5.34;49.65;101943.38;1784501;80;21498;-67
2022/03/14 06:48:49;;;;;;;8.70;4.97;;;;;;;5.17;50.14;101945.30;1784394;80;21071;-68
2022/03/14 06:51:16;;;;;;;7.10;4.35;;;;;;;4.97;51.48;101958.09;1784713;80;21092;-67
2022/03/14 06:53:43;;;;;;;10.18;4.28;;;;;;;4.87;49.83;101951.39;1784520;80;21084;-68
2022/03/14 06:56:10;;;;;;;7.03;4.95;;;;;;;4.74;50.65;101958.13;1784522;80;21154;-67
2022/03/14 07:00:38;;;;;;;10.70;5.10;;;;;;;4.60;51.29;101959.20;1796621;79;28532;-68
2022/03/14 07:03:04;;;;;;;8.85;5.17;;;;;;;4.41;52.09;101956.28;1756529;81;21014;-67
2022/03/14 07:05:31;;;;;;;8.80;4.47;;;;;;;4.35;52.24;101956.20;1756515;81;21135;-68
2022/03/14 07:07:58;;;;;;;8.18;4.15;;;;;;;4.28;51.31;101956.95;1756494;81;21069;-69
2022/03/14 07:10:26;;;;;;;8.08;5.00;;;;;;;4.07;50.18;101952.61;1756506;81;20997;-69
2022/03/14 07:12:54;;;;;;;8.35;4.70;;;;;;;3.86;51.51;101965.69;1752849;81;21093;-68
2022/03/14 07:15:25;;;;;;;11.73;4.70;;;;;;;3.76;51.53;101967.66;1748164;82;21040;-68
2022/03/14 07:17:52;;;;;;;7.12;4.30;;;;;;;3.68;51.78;101962.70;1748194;82;21141;-69
2022/03/14 07:20:19;;;;;;;8.68;4.60;;;;;;;3.63;51.59;101965.65;1747928;82;21045;-67
2022/03/14 07:22:55;;;;;;;7.65;4.67;;;;;;;3.63;52.06;101962.61;1748358;81;20974;-68
2022/03/14 07:25:31;;;;;;;7.58;4.30;;;;;;;3.79;52.30;101957.29;1748182;82;21072;-67
2022/03/14 07:28:02;;;;;;;6.58;4.33;;;;;;;4.01;51.56;101959.03;1747689;82;21100;-69
2022/03/14 07:30:29;;;;;;;10.50;5.08;;;;;;;4.31;51.65;101956.98;1748209;82;21286;-68
2022/03/14 07:32:55;;;;;;;7.45;4.58;;;;;;;4.67;51.06;101957.19;1748029;82;21530;-68
2022/03/14 07:35:23;;;;;;;9.53;4.28;;;;;;;5.09;48.90;101951.30;1748185;82;21066;-68
2022/03/14 07:37:50;;;;;;;6.75;4.12;;;;;;;5.39;49.12;101954.77;1748511;82;22023;-68
2022/03/14 07:40:17;;;;;;;7.85;4.15;;;;;;;6.00;48.74;101946.38;1748101;82;21523;-67
2022/03/14 07:42:46;;;;;;;9.20;5.15;;;;;;;6.64;45.14;101954.41;1747947;82;21514;-68
2022/03/14 07:45:16;;;;;;;10.68;5.83;;;;;;;6.80;43.20;101954.97;1747959;82;21036;-68
2022/03/14 07:47:43;;;;;;;8.45;4.70;;;;;;;6.90;42.83;101955.50;1748286;82;21120;-69
2022/03/14 07:50:13;;;;;;;11.43;5.10;;;;;;;6.93;42.83;101959.45;1748013;82;21041;-68
2022/03/14 07:52:42;;;;;;;7.10;4.80;;;;;;;6.61;41.63;101956.58;1748255;81;21540;-68
2022/03/14 07:55:09;;;;;;;8.20;5.03;;;;;;;6.46;43.37;101960.35;1748269;82;21184;-68
2022/03/14 07:57:37;;;;;;;7.90;5.35;;;;;;;6.42;42.62;101954.23;1748015;82;21032;-68
2022/03/14 08:00:10;;;;;;;7.28;4.78;;;;;;;6.44;43.04;101955.53;1739451;82;21038;-69
2022/03/14 08:02:40;;;;;;;7.80;4.55;;;;;;;6.73;43.24;101955.80;1734853;82;21097;-68
2022/03/14 08:05:10;;;;;;;7.08;4.78;;;;;;;6.94;42.23;101953.33;1734847;82;21061;-68
2022/03/14 08:07:38;;;;;;;7.58;4.75;;;;;;;6.99;41.95;101956.41;1734838;82;21046;-68
2022/03/14 08:10:09;;;;;;;8.55;4.83;;;;;;;6.85;42.52;101958.50;1734476;82;21085;-68
2022/03/14 08:12:53;;;;;;;6.47;4.80;;;;;;;6.71;41.99;101946.60;1734234;82;21030;-68
2022/03/14 08:15:32;;;;;;;8.30;4.67;;;;;;;6.58;42.68;101954.34;1734442;82;21595;-68
2022/03/14 08:18:03;;;;;;;10.20;4.83;;;;;;;6.52;42.78;101953.88;1734306;82;21038;-68
2022/03/14 08:20:32;;;;;;;8.58;4.90;;;;;;;6.47;42.37;101953.83;1734607;82;21208;-68
2022/03/14 08:22:59;;;;;;;7.70;4.75;;;;;;;6.29;42.64;101956.28;1734286;82;21022;-68
2022/03/14 08:25:31;;;;;;;;;;;;;;;6.14;43.41;101957.42;1737158;82;21094;-69
2022/03/14 08:27:59;;;;;;;7.70;4.65;;;;;;;5.97;43.02;101958.56;1734659;82;20151;-68
2022/03/14 08:30:26;;;;;;;7.72;4.58;;;;;;;5.90;43.50;101961.50;1734396;82;21050;-70
2022/03/14 08:32:57;;;;;;;8.48;5.05;;;;;;;5.86;43.79;101958.39;1734398;82;21255;-68
2022/03/14 08:35:25;;;;;;;8.05;4.22;;;;;;;5.81;44.22;101960.08;1734231;82;21041;-67
2022/03/14 08:37:52;;;;;;;7.33;4.92;;;;;;;5.76;44.33;101960.02;1734455;82;21058;-68
2022/03/14 08:40:22;;;;;;;7.58;4.50;;;;;;;5.74;44.54;101964.79;1734153;82;21034;-68
2022/03/14 08:42:49;;;;;;;8.58;4.95;;;;;;;5.69;45.10;101956.89;1734589;82;21046;-68
2022/03/14 08:45:16;;;;;;;8.20;4.65;;;;;;;5.80;44.80;101953.11;1734220;82;21197;-68
2022/03/14 08:47:42;;;;;;;8.18;4.62;;;;;;;5.91;44.56;101950.16;1734219;82;21070;-68
2022/03/14 08:50:12;;;;;;;8.03;4.62;;;;;;;6.11;43.70;101948.25;1712738;82;21081;-67
2022/03/14 08:52:39;;;;;;;9.33;4.97;;;;;;;6.34;43.68;101938.87;1705305;84;21042;-66
2022/03/14 08:55:07;;;;;;;7.67;4.95;;;;;;;6.50;42.62;101945.13;1704917;84;21097;-67
2022/03/14 08:57:33;;;;;;;9.85;4.67;;;;;;;6.86;43.13;101941.94;1705135;84;21151;-67
2022/03/14 09:00:01;;;;;;;6.58;4.65;;;;;;;7.45;42.14;101935.72;1711337;83;21556;-68
2022/03/14 09:02:28;;;;;;;6.85;4.30;;;;;;;8.12;40.52;101935.97;1718529;82;22119;-68
2022/03/14 09:04:55;;;;;;;6.30;4.42;;;;;;;8.81;39.13;101939.08;1718415;83;21103;-68
2022/03/14 09:07:30;;;;;;;6.28;4.50;;;;;;;9.37;37.12;101930.22;1718637;83;21573;-68
2022/03/14 09:10:09;;;;;;;6.75;4.25;;;;;;;9.92;36.98;101917.71;1718510;83;21244;-68
2022/03/14 09:12:38;;;;;;;9.73;4.35;;;;;;;10.67;35.75;101912.80;1718588;83;21507;-68
2022/03/14 09:15:07;;;;;;;5.20;3.62;;;;;;;11.32;33.43;101896.30;1718481;83;21022;-68
2022/03/14 09:17:35;;;;;;;5.58;3.92;;;;;;;11.82;34.12;101903.99;1718764;83;21041;-68
2022/03/14 09:20:05;;;;;;;4.78;3.62;;;;;;;12.33;32.38;101892.27;1718612;83;21054;-68
2022/03/14 09:22:32;;;;;;;9.98;3.75;;;;;;;12.67;31.23;101899.61;1718802;83;21796;-68
2022/03/14 09:24:59;;;;;;;4.92;3.45;;;;;;;12.47;29.96;101894.69;1718446;83;21101;-68
2022/03/14 09:27:28;;;;;;;6.58;3.40;;;;;;;12.42;30.83;101893.87;1718631;83;21580;-68
2022/03/14 09:29:54;;;;;;;6.60;4.17;;;;;;;12.67;29.79;101891.69;1718564;83;21029;-68
2022/03/14 09:32:21;;;;;;;5.78;3.70;;;;;;;12.57;29.95;101887.47;1747063;82;21029;-69
2022/03/14 09:34:48;;;;;;;6.15;3.85;;;;;;;12.69;30.58;101879.77;1748413;82;21238;-68
2022/03/14 09:37:15;;;;;;;5.60;3.72;;;;;;;13.16;29.55;101872.73;1748290;82;21018;-68
2022/03/14 09:39:42;;;;;;;5.12;3.33;;;;;;;12.99;29.45;101877.00;1695982;82;21050;-71
2022/03/14 09:42:11;;;;;;;5.65;3.60;;;;;;;12.82;29.23;101881.30;1748418;82;21543;-69
2022/03/14 09:44:38;;;;;;;6.55;3.60;;;;;;;12.28;29.02;101883.53;1748319;82;21084;-70
2022/03/14 09:47:05;;;;;;;5.92;3.55;;;;;;;11.89;29.92;101883.27;1748517;82;21519;-68
2022/03/14 09:49:32;;;;;;;5.65;3.70;;;;;;;11.79;30.07;101886.89;1734153;82;21040;-69
2022/03/14 09:52:00;;;;;;;8.30;3.50;;;;;;;11.32;30.83;101885.76;1718449;83;21045;-69
2022/03/14 09:54:28;;;;;;;7.33;4.03;;;;;;;10.91;31.34;101881.81;1718203;83;20994;-68
2022/03/14 09:56:56;;;;;;;5.28;3.50;;;;;;;11.18;31.50;101881.06;1718501;83;21093;-69
2022/03/14 09:59:22;;;;;;;5.65;3.47;;;;;;;11.36;31.64;101885.26;1718263;83;21243;-68
2022/03/14 10:01:50;;;;;;;4.78;3.67;;;;;;;11.41;31.29;101876.41;1718326;83;21128;-68
2022/03/14 10:04:16;;;;;;;8.23;4.20;;;;;;;11.58;31.37;101876.18;1718445;83;21053;-68
2022/03/14 10:06:44;;;;;;;5.95;3.77;;;;;;;11.63;31.58;101868.20;1718542;83;21006;-68
2022/03/14 10:09:10;;;;;;;9.58;4.40;;;;;;;11.46;30.44;101864.03;1718307;83;21084;-68
2022/03/14 10:11:37;;;;;;;15.98;4.20;;;;;;;11.22;31.12;101863.00;1718381;83;21247;-68
2022/03/14 10:14:05;;;;;;;7.53;3.92;;;;;;;11.27;31.66;101859.86;1691402;83;21557;-69
2022/03/14 10:16:34;;;;;;;6.78;4.55;;;;;;;11.28;30.86;101847.98;1718110;83;21034;-70
2022/03/14 10:19:02;;;;;;;6.80;4.47;;;;;;;11.17;31.53;101848.56;1718495;83;21573;-68
2022/03/14 10:21:40;;;;;;;5.72;3.80;;;;;;;11.26;31.24;101835.26;1718302;83;21120;-69
2022/03/14 10:24:10;;;;;;;5.28;4.03;;;;;;;11.22;31.27;101839.27;1718265;83;21891;-68
2022/03/14 10:26:43;;;;;;;5.95;4.12;;;;;;;10.95;31.18;101846.63;1718505;83;21625;-68
2022/03/14 10:29:12;;;;;;;7.33;4.90;;;;;;;10.96;31.70;101849.69;1718205;83;21045;-68
2022/03/14 10:31:43;;;;;;;10.32;4.58;;;;;;;11.30;31.13;101840.06;1718372;83;21109;-68
2022/03/14 10:34:14;;;;;;;6.80;4.70;;;;;;;11.75;31.06;101842.95;1718245;82;21069;-70
2022/03/14 10:36:54;;;;;;;9.20;5.05;;;;;;;12.09;30.94;101847.75;1718528;83;21715;-69
2022/03/14 10:39:27;;;;;;;8.90;5.03;;;;;;;12.48;30.13;101837.42;1718000;83;21528;-69
2022/03/14 10:42:09;;;;;;;8.85;4.87;;;;;;;12.80;29.51;101836.38;1718571;83;21073;-69
2022/03/14 10:44:40;;;;;;;6.62;4.83;;;;;;;13.17;28.82;101827.70;1718043;83;21081;-69
2022/03/14 10:47:13;;;;;;;8.50;5.08;;;;;;;13.50;28.12;101831.88;1718549;83;21036;-68
2022/03/14 10:49:39;;;;;;;8.25;5.20;;;;;;;13.73;27.07;101822.09;1733351;82;21212;-69
2022/03/14 10:52:09;;;;;;;8.50;5.35;;;;;;;13.29;27.13;101827.06;1748344;82;21022;-69
2022/03/14 10:54:38;;;;;;;7.70;5.37;;;;;;;12.72;27.81;101820.23;1748045;82;21045;-69
2022/03/14 10:57:12;;;;;;;8.03;5.40;;;;;;;12.57;28.58;101819.63;1747961;82;21569;-69
2022/03/14 10:59:47;;;;;;;10.98;5.90;;;;;;;12.70;28.28;101818.95;1747126;81;21078;-69
2022/03/14 11:02:20;;;;;;;12.78;5.05;;;;;;;12.79;28.36;101793.66;1734205;82;21111;-69
2022/03/14 11:04:49;;;;;;;11.97;6.22;;;;;;;12.66;28.27;101799.22;1734223;82;21042;-68
2022/03/14 11:07:23;;;;;;;;;;;;;;;12.69;28.72;101807.08;1737134;82;21003;-67
2022/03/14 11:09:56;;;;;;;12.80;6.10;;;;;;;12.76;28.03;101797.67;1734452;82;20589;-69
2022/03/14 11:12:25;;;;;;;13.22;6.62;;;;;;;12.71;28.63;101787.64;1734273;82;21061;-69
2022/03/14 11:15:01;;;;;;;10.47;6.40;;;;;;;12.98;28.67;101783.58;1734566;82;21264;-67
2022/03/14 11:17:35;;;;;;;11.57;6.45;;;;;;;13.43;28.43;101783.97;1734077;82;21686;-69
2022/03/14 11:20:01;;;;;;;9.73;5.83;;;;;;;13.80;27.85;101787.08;1734408;82;21491;-69
2022/03/14 11:22:30;;;;;;;10.40;6.28;;;;;;;14.10;26.39;101784.59;1734775;82;21014;-70
2022/03/14 11:24:59;;;;;;;10.55;6.60;;;;;;;14.01;26.31;101773.33;1735028;82;21026;-68